Terminal Aerodrome Forecast
Issued by NWS

Home | Current Version | Previous Version | Text Only | Print | Product List | Glossary On
Versions: 1 2 3 4 5 6 7 8 9 10 11 12 13 14 15 16 17 18
376
FTUS45 KRIW 171728
TAFRKS
TAF
KRKS 171728Z 1718/1818 VRB04KT 5SM BR SKC
     FM171900 24007KT P6SM SKC
     FM180400 25006KT 2SM BR SCT003
     FM180600 21006KT 3/4SM BR VV002
     FM181500 21006KT 2SM BR SCT003=

USA.gov is the U.S. government's official web portal to all federal, state and local government web resources and services.